createdAt,value
2018-03-23T00:10:26.052Z,9.76
2018-03-23T00:12:57.702Z,9.83
2018-03-23T00:15:29.917Z,9.77
2018-03-23T00:18:01.303Z,9.78
2018-03-23T00:20:33.426Z,9.74
2018-03-23T00:23:06.339Z,9.72
2018-03-23T00:25:37.867Z,9.70
2018-03-23T00:28:09.414Z,9.78
2018-03-23T00:30:41.187Z,9.86
2018-03-23T00:33:12.870Z,9.71
2018-03-23T00:35:44.136Z,9.61
2018-03-23T00:38:15.644Z,9.60
2018-03-23T00:40:47.208Z,9.64
2018-03-23T00:43:21.440Z,9.65
2018-03-23T00:45:54.912Z,9.68
2018-03-23T00:48:26.606Z,9.68
2018-03-23T00:50:58.230Z,9.74
2018-03-23T00:53:30.882Z,9.74
2018-03-23T00:56:02.474Z,9.69
2018-03-23T00:58:34.060Z,9.68
2018-03-23T01:01:10.887Z,9.71
2018-03-23T01:03:42.389Z,9.75
2018-03-23T01:20:21.355Z,9.69
2018-03-23T01:22:54.167Z,9.68
2018-03-23T01:25:26.091Z,9.76
2018-03-23T01:27:57.989Z,9.73
2018-03-23T01:30:29.975Z,9.76
2018-03-23T01:33:01.618Z,9.78
2018-03-23T01:35:34.225Z,9.83
2018-03-23T01:38:06.010Z,9.83
2018-03-23T01:40:37.860Z,9.85
2018-03-23T01:43:10.253Z,9.83
2018-03-23T01:45:42.602Z,9.78
2018-03-23T01:48:15.124Z,9.81
2018-03-23T01:50:46.816Z,9.91
2018-03-23T01:53:27.344Z,9.96
2018-03-23T01:55:59.274Z,9.96
2018-03-23T01:58:31.414Z,10.11
2018-03-23T02:01:03.655Z,10.23
2018-03-23T02:03:35.141Z,10.21
2018-03-23T02:08:58.719Z,10.08
2018-03-23T02:11:37.550Z,10.12
2018-03-23T02:14:29.270Z,10.10
2018-03-23T02:17:01.183Z,10.00
2018-03-23T02:19:32.381Z,10.02
2018-03-23T02:24:45.859Z,10.14
2018-03-23T02:27:17.241Z,10.10
2018-03-23T02:29:48.549Z,9.96
2018-03-23T02:32:20.713Z,9.91
2018-03-23T02:34:51.894Z,9.84
2018-03-23T02:37:24.130Z,9.86
2018-03-23T02:39:56.558Z,9.84
2018-03-23T02:42:27.669Z,9.83
2018-03-23T02:44:59.513Z,9.88
2018-03-23T02:47:31.605Z,9.84
2018-03-23T02:50:03.678Z,9.75
2018-03-23T02:58:39.421Z,9.72
2018-03-23T03:01:11.082Z,9.64
2018-03-23T03:03:42.413Z,9.54
2018-03-23T03:06:13.977Z,9.68
2018-03-23T03:08:45.452Z,9.58
2018-03-23T03:11:16.482Z,9.58
2018-03-23T03:13:47.857Z,9.69
2018-03-23T03:16:19.929Z,9.65
2018-03-23T03:18:51.425Z,9.59
2018-03-23T03:21:22.519Z,9.70
2018-03-23T03:23:54.495Z,9.72
2018-03-23T03:26:25.566Z,9.74
2018-03-23T03:29:05.430Z,9.80
2018-03-23T03:31:42.711Z,9.78
2018-03-23T03:34:13.507Z,9.72
2018-03-23T03:36:44.792Z,9.72
2018-03-23T03:39:16.349Z,9.66
2018-03-23T03:44:27.948Z,9.61
2018-03-23T03:46:59.951Z,9.51
2018-03-23T03:49:30.804Z,9.55
2018-03-23T03:52:02.684Z,9.48
2018-03-23T03:54:33.462Z,9.40
2018-03-23T03:57:04.588Z,9.43
2018-03-23T03:59:35.468Z,9.48
2018-03-23T04:02:07.134Z,9.41
2018-03-23T04:04:39.507Z,9.53
2018-03-23T04:07:10.770Z,9.54
2018-03-23T04:09:41.874Z,9.49
2018-03-23T04:12:12.775Z,9.29
2018-03-23T04:14:45.220Z,9.28
2018-03-23T04:17:17.574Z,9.13
2018-03-23T04:19:48.822Z,9.18
2018-03-23T04:22:20.867Z,9.20
2018-03-23T04:24:52.012Z,9.11
2018-03-23T04:27:23.657Z,9.19
2018-03-23T04:29:55.492Z,9.18
2018-03-23T04:32:29.257Z,9.01
2018-03-23T04:35:00.610Z,9.04
2018-03-23T04:37:32.058Z,9.00
2018-03-23T04:40:03.804Z,8.99
2018-03-23T04:42:35.338Z,8.98
2018-03-23T04:45:08.204Z,9.09
2018-03-23T04:47:39.239Z,9.04
2018-03-23T04:50:10.410Z,8.99
2018-03-23T04:52:41.244Z,9.02
2018-03-23T04:55:14.073Z,8.82
2018-03-23T04:57:44.518Z,8.80
2018-03-23T05:00:19.959Z,8.83
2018-03-23T05:02:53.414Z,8.83
2018-03-23T05:05:24.174Z,8.70
2018-03-23T05:07:55.175Z,8.69
2018-03-23T05:10:26.356Z,8.70
2018-03-23T05:12:58.261Z,8.61
2018-03-23T05:15:30.115Z,8.64
2018-03-23T05:18:01.406Z,8.64
2018-03-23T05:20:32.671Z,8.63
2018-03-23T05:23:03.872Z,8.76
2018-03-23T05:25:34.827Z,8.77
2018-03-23T05:28:06.389Z,8.82
2018-03-23T05:30:38.560Z,8.79
2018-03-23T05:33:09.358Z,8.64
2018-03-23T05:35:40.722Z,8.56
2018-03-23T05:38:11.870Z,8.47
2018-03-23T05:40:43.892Z,8.74
2018-03-23T05:45:54.488Z,8.65
2018-03-23T05:48:25.965Z,8.64
2018-03-23T05:50:59.614Z,8.69
2018-03-23T05:53:31.415Z,8.70
2018-03-23T05:56:03.330Z,8.76
2018-03-23T05:58:35.004Z,8.86
2018-03-23T06:01:06.726Z,8.90
2018-03-23T06:03:39.272Z,8.96
2018-03-23T06:06:10.942Z,8.96
2018-03-23T06:08:44.420Z,8.84
2018-03-23T06:11:30.873Z,8.89
2018-03-23T06:14:04.072Z,8.91
2018-03-23T06:16:37.040Z,8.76
2018-03-23T06:19:09.341Z,8.73
2018-03-23T06:21:41.704Z,8.69
2018-03-23T06:24:12.944Z,8.60
2018-03-23T06:26:45.744Z,8.62
2018-03-23T06:29:17.619Z,8.70
2018-03-23T06:31:50.324Z,8.63
2018-03-23T06:34:22.831Z,8.67
2018-03-23T06:36:54.381Z,8.68
2018-03-23T06:39:26.705Z,8.66
2018-03-23T06:42:01.185Z,8.72
2018-03-23T06:44:36.095Z,8.76
2018-03-23T06:47:13.421Z,8.72
2018-03-23T06:50:06.297Z,8.62
2018-03-23T06:52:39.340Z,8.75
2018-03-23T06:57:49.749Z,8.56
2018-03-23T07:03:25.878Z,8.86
2018-03-23T07:05:59.614Z,8.85
2018-03-23T07:08:31.472Z,8.89
2018-03-23T07:11:04.832Z,8.87
2018-03-23T07:13:37.296Z,8.93
2018-03-23T07:16:12.933Z,8.97
2018-03-23T07:18:46.186Z,9.03
2018-03-23T07:21:18.668Z,8.91
2018-03-23T07:23:50.207Z,9.05
2018-03-23T07:26:34.291Z,8.98
2018-03-23T07:29:06.121Z,9.21
2018-03-23T07:31:39.018Z,9.34
2018-03-23T07:34:15.858Z,9.38
2018-03-23T07:36:59.519Z,9.27
2018-03-23T07:39:39.240Z,9.58
2018-03-23T07:42:11.413Z,9.63
2018-03-23T07:44:50.577Z,9.68
2018-03-23T07:47:23.422Z,9.71
2018-03-23T07:49:56.293Z,9.76
2018-03-23T07:52:28.069Z,10.00
2018-03-23T07:54:59.414Z,9.92
2018-03-23T07:57:30.895Z,10.01
2018-03-23T08:00:16.849Z,9.97
2018-03-23T08:02:52.653Z,10.01
2018-03-23T08:05:25.604Z,10.19
2018-03-23T08:07:57.378Z,9.98
2018-03-23T08:10:29.217Z,9.89
2018-03-23T08:13:04.808Z,9.97
2018-03-23T08:15:51.209Z,10.01
2018-03-23T08:18:24.406Z,10.18
2018-03-23T08:20:56.596Z,10.18
2018-03-23T08:23:28.507Z,10.22
2018-03-23T08:26:01.361Z,10.38
2018-03-23T08:28:32.745Z,10.22
2018-03-23T08:31:06.337Z,10.59
2018-03-23T08:33:40.252Z,10.72
2018-03-23T08:36:11.651Z,10.79
2018-03-23T08:38:45.226Z,10.99
2018-03-23T08:41:18.855Z,11.17
2018-03-23T08:43:51.489Z,11.11
2018-03-23T08:46:26.184Z,11.37
2018-03-23T08:49:04.804Z,11.28
2018-03-23T08:51:36.886Z,11.54
2018-03-23T08:54:12.287Z,11.75
2018-03-23T08:56:46.235Z,11.85
2018-03-23T08:59:19.465Z,12.08
2018-03-23T09:01:53.456Z,11.95
2018-03-23T09:04:43.970Z,11.90
2018-03-23T09:07:16.556Z,12.45
2018-03-23T09:09:52.135Z,12.66
2018-03-23T09:12:24.509Z,12.80
2018-03-23T09:14:55.987Z,12.46
2018-03-23T09:17:27.833Z,12.04
2018-03-23T09:20:02.039Z,11.92
2018-03-23T09:22:33.961Z,12.17
2018-03-23T09:25:12.358Z,12.29
2018-03-23T09:27:44.859Z,12.40
2018-03-23T09:30:21.860Z,12.17
2018-03-23T09:32:55.259Z,11.82
2018-03-23T09:35:28.234Z,11.78
2018-03-23T09:38:00.157Z,11.73
2018-03-23T09:40:31.353Z,11.82
2018-03-23T09:43:06.306Z,12.28
2018-03-23T09:45:38.585Z,12.34
2018-03-23T09:48:13.073Z,12.63
2018-03-23T09:50:44.228Z,12.65
2018-03-23T09:53:19.862Z,12.85
2018-03-23T09:55:51.061Z,12.74
2018-03-23T09:58:24.367Z,12.79
2018-03-23T10:00:58.481Z,12.59
2018-03-23T10:03:30.597Z,12.64
2018-03-23T10:06:02.393Z,12.68
2018-03-23T10:08:33.652Z,12.59
2018-03-23T10:11:04.520Z,12.51
2018-03-23T10:13:35.476Z,12.22
2018-03-23T10:16:07.570Z,12.25
2018-03-23T10:18:39.044Z,11.56
2018-03-23T10:21:11.942Z,11.66
2018-03-23T10:23:44.918Z,11.75
2018-03-23T10:26:16.078Z,11.81
2018-03-23T10:28:49.242Z,11.85
2018-03-23T10:31:20.804Z,11.92
2018-03-23T10:33:54.184Z,11.88
2018-03-23T10:36:25.891Z,11.50
2018-03-23T10:38:56.538Z,11.27
2018-03-23T10:41:27.630Z,11.23
2018-03-23T10:43:58.556Z,11.30
2018-03-23T10:46:30.552Z,11.29
2018-03-23T10:49:01.868Z,11.21
2018-03-23T10:52:09.976Z,11.27
2018-03-23T10:54:45.764Z,11.34
2018-03-23T10:57:18.946Z,11.26
2018-03-23T10:59:54.258Z,11.25
2018-03-23T11:02:32.178Z,11.33
2018-03-23T11:05:11.560Z,11.27
2018-03-23T11:07:45.236Z,11.37
2018-03-23T11:10:22.459Z,10.98
2018-03-23T11:12:54.117Z,11.09
2018-03-23T11:15:32.211Z,10.88
2018-03-23T11:18:06.650Z,11.07
2018-03-23T11:20:53.480Z,11.20
2018-03-23T11:23:26.004Z,11.25
2018-03-23T11:25:56.958Z,11.32
2018-03-23T11:28:28.300Z,11.44
2018-03-23T11:31:02.147Z,11.51
2018-03-23T11:33:34.578Z,11.43
2018-03-23T11:36:06.842Z,11.31
2018-03-23T11:38:39.001Z,11.07
2018-03-23T11:41:11.159Z,11.38
2018-03-23T11:43:42.683Z,11.48
2018-03-23T11:46:39.460Z,11.48
2018-03-23T11:49:24.743Z,11.24
2018-03-23T11:52:05.260Z,11.07
2018-03-23T11:54:44.925Z,11.20
2018-03-23T11:57:16.144Z,11.09
2018-03-23T11:59:48.823Z,11.12
2018-03-23T12:02:27.493Z,10.81
2018-03-23T12:04:59.258Z,10.00
2018-03-23T12:07:36.047Z,10.83
2018-03-23T12:10:14.435Z,11.02
2018-03-23T12:12:49.934Z,10.83
2018-03-23T12:15:26.140Z,10.70
2018-03-23T12:18:02.361Z,10.52
2018-03-23T12:20:33.939Z,10.44
2018-03-23T12:23:06.900Z,10.50
2018-03-23T12:25:38.181Z,10.46
2018-03-23T12:28:12.129Z,10.38
2018-03-23T12:30:48.386Z,10.49
2018-03-23T12:33:20.103Z,10.52
2018-03-23T12:35:52.150Z,10.67
2018-03-23T12:38:24.014Z,10.87
2018-03-23T12:40:55.811Z,11.01
2018-03-23T12:43:27.620Z,11.18
2018-03-23T12:46:09.538Z,11.34
2018-03-23T12:48:46.198Z,11.32
2018-03-23T12:51:22.619Z,11.32
2018-03-23T12:53:54.410Z,11.40
2018-03-23T12:56:30.676Z,11.48
2018-03-23T12:59:03.913Z,11.39
2018-03-23T13:04:35.279Z,11.40
2018-03-23T13:07:07.114Z,11.17
2018-03-23T13:09:49.912Z,11.17
2018-03-23T13:12:28.230Z,11.20
2018-03-23T13:15:00.899Z,11.27
2018-03-23T13:20:23.668Z,11.10
2018-03-23T13:22:59.597Z,11.11
2018-03-23T13:25:38.456Z,10.97
2018-03-23T13:28:32.414Z,10.79
2018-03-23T13:31:10.961Z,10.98
2018-03-23T13:33:47.366Z,11.14
2018-03-23T13:36:42.973Z,11.29
2018-03-23T13:39:16.055Z,11.44
2018-03-23T13:42:02.525Z,11.16
2018-03-23T13:44:36.123Z,11.24
2018-03-23T13:47:10.142Z,11.36
2018-03-23T13:49:42.625Z,11.30
2018-03-23T13:52:20.050Z,11.03
2018-03-23T13:55:01.336Z,11.27
2018-03-23T13:57:36.923Z,11.22
2018-03-23T14:00:25.935Z,11.28
2018-03-23T14:02:57.474Z,11.05
2018-03-23T14:05:28.438Z,11.16
2018-03-23T14:07:59.948Z,11.08
2018-03-23T14:10:37.951Z,11.16
2018-03-23T14:13:09.723Z,11.14
2018-03-23T14:15:41.166Z,11.08
2018-03-23T14:18:18.407Z,11.12
2018-03-23T14:20:49.739Z,11.14
2018-03-23T14:23:23.657Z,10.93
2018-03-23T14:26:10.619Z,10.55
2018-03-23T14:33:07.018Z,10.74
2018-03-23T14:36:15.278Z,10.73
2018-03-23T14:38:53.388Z,11.11
2018-03-23T14:41:35.352Z,11.28
2018-03-23T14:44:14.592Z,11.01
2018-03-23T14:46:49.113Z,11.18
2018-03-23T14:49:24.546Z,11.19
2018-03-23T14:51:55.830Z,11.31
2018-03-23T14:54:27.425Z,11.14
2018-03-23T14:56:59.388Z,11.39
2018-03-23T15:09:55.916Z,11.01
2018-03-23T15:12:34.534Z,11.16
2018-03-23T15:20:54.894Z,10.86
2018-03-23T15:23:26.184Z,11.10
2018-03-23T15:25:57.634Z,11.23
2018-03-23T15:28:30.454Z,10.70
2018-03-23T15:31:05.682Z,10.67
2018-03-23T15:37:44.243Z,10.47
2018-03-23T15:40:17.033Z,10.80
2018-03-23T15:42:47.857Z,10.73
2018-03-23T15:45:19.321Z,10.73
2018-03-23T15:47:50.758Z,10.83
2018-03-23T15:50:53.830Z,10.80
2018-03-23T15:53:25.892Z,10.89
2018-03-23T16:03:05.746Z,11.14
2018-03-23T16:05:45.213Z,11.00
2018-03-23T16:08:27.471Z,10.88
2018-03-23T16:11:01.830Z,10.99
2018-03-23T16:13:33.948Z,10.80
2018-03-23T16:16:07.761Z,10.62
2018-03-23T16:18:39.946Z,10.09
2018-03-23T16:21:11.516Z,10.36
2018-03-23T16:32:22.415Z,10.28
2018-03-23T16:35:02.059Z,10.16
2018-03-23T16:37:43.246Z,10.27
2018-03-23T16:43:01.406Z,10.39
2018-03-23T16:45:47.732Z,10.14
2018-03-23T16:48:21.509Z,10.08
2018-03-23T16:50:55.393Z,10.26
2018-03-23T16:53:29.944Z,9.88
2018-03-23T16:56:12.632Z,9.87
2018-03-23T16:58:54.233Z,10.18
2018-03-23T17:01:29.018Z,9.77
2018-03-23T17:04:03.665Z,9.75
2018-03-23T17:06:36.711Z,9.92
2018-03-23T17:13:16.654Z,10.04
2018-03-23T17:15:48.322Z,9.99
2018-03-23T17:18:20.542Z,10.10
2018-03-23T17:20:52.183Z,9.94
2018-03-23T17:23:23.353Z,10.10
2018-03-23T17:25:54.613Z,9.95
2018-03-23T17:28:28.492Z,9.99
2018-03-23T17:33:53.821Z,9.99
2018-03-23T17:36:36.201Z,9.87
2018-03-23T17:44:49.850Z,9.91
2018-03-23T17:51:30.557Z,9.99
2018-03-23T17:54:02.528Z,9.75
2018-03-23T17:56:34.976Z,9.30
2018-03-23T17:59:09.852Z,9.08
2018-03-23T18:01:43.973Z,9.26
2018-03-23T18:04:24.363Z,9.61
2018-03-23T18:09:48.773Z,9.77
2018-03-23T18:12:32.716Z,9.71
2018-03-23T18:30:53.990Z,9.61
2018-03-23T18:37:30.129Z,9.50
2018-03-23T18:40:06.927Z,9.20
2018-03-23T18:42:41.184Z,9.37
2018-03-23T18:45:13.978Z,9.01
2018-03-23T18:47:46.076Z,8.77
2018-03-23T18:50:18.387Z,8.77
2018-03-23T18:52:49.688Z,8.92
2018-03-23T19:04:21.909Z,8.87
2018-03-23T19:14:30.417Z,9.41
2018-03-23T19:17:10.229Z,9.20
2018-03-23T19:27:17.983Z,9.15
2018-03-23T19:35:41.940Z,9.26
2018-03-23T19:38:28.542Z,9.34
2018-03-23T19:43:51.018Z,9.25
2018-03-23T19:46:22.889Z,9.48
2018-03-23T19:48:54.243Z,9.60
2018-03-23T20:01:51.121Z,9.08
2018-03-23T20:04:32.796Z,9.28
2018-03-23T20:07:04.559Z,9.37
2018-03-23T20:09:35.761Z,9.06
2018-03-23T20:12:07.880Z,9.12
2018-03-23T20:14:39.573Z,9.01
2018-03-23T20:17:11.008Z,9.20
2018-03-23T20:25:54.530Z,9.29
2018-03-23T20:28:46.144Z,9.00
2018-03-23T20:31:21.920Z,9.22
2018-03-23T20:33:54.567Z,9.08
2018-03-23T20:36:27.808Z,9.26
2018-03-23T20:38:59.616Z,9.31
2018-03-23T20:46:18.150Z,9.50
2018-03-23T20:54:32.102Z,9.59
2018-03-23T20:57:03.275Z,9.04
2018-03-23T20:59:34.170Z,8.98
2018-03-23T21:02:05.363Z,9.26
2018-03-23T21:07:29.396Z,8.88
2018-03-23T21:10:02.261Z,8.77
2018-03-23T21:12:34.840Z,8.84
2018-03-23T21:15:08.625Z,9.17
2018-03-23T21:17:40.949Z,8.74
2018-03-23T21:20:13.854Z,9.15
2018-03-23T21:22:45.428Z,8.78
2018-03-23T21:25:22.184Z,9.03
2018-03-23T21:27:54.377Z,8.79
2018-03-23T21:30:29.219Z,9.11
2018-03-23T21:33:00.415Z,9.29
2018-03-23T21:35:32.054Z,9.45
2018-03-23T21:38:03.847Z,9.24
2018-03-23T21:40:35.765Z,9.33
2018-03-23T21:43:09.454Z,9.28
2018-03-23T21:45:41.785Z,9.16
2018-03-23T21:48:15.782Z,9.49
2018-03-23T21:50:46.634Z,9.58
2018-03-23T21:53:21.407Z,9.63
2018-03-23T21:55:52.658Z,9.55
2018-03-23T21:58:23.774Z,9.70
2018-03-23T22:00:57.049Z,9.58
2018-03-23T22:03:28.102Z,9.18
2018-03-23T22:05:59.371Z,9.29
2018-03-23T22:08:30.677Z,9.41
2018-03-23T22:11:01.893Z,9.14
2018-03-23T22:13:32.877Z,9.05
2018-03-23T22:16:08.716Z,9.25
2018-03-23T22:18:40.310Z,9.61
2018-03-23T22:21:12.532Z,9.33
2018-03-23T22:23:47.077Z,9.40
2018-03-23T22:28:55.899Z,9.70
2018-03-23T22:31:27.557Z,9.08
2018-03-23T22:33:58.535Z,9.56
2018-03-23T22:42:39.637Z,9.63
2018-03-23T22:45:12.846Z,9.62
2018-03-23T22:47:47.020Z,9.50
2018-03-23T22:50:19.974Z,9.49
2018-03-23T22:52:53.152Z,9.83
2018-03-23T22:55:24.624Z,9.92
2018-03-23T22:57:55.816Z,10.10
2018-03-23T23:00:27.577Z,10.05
2018-03-23T23:02:59.678Z,10.11
2018-03-23T23:05:31.414Z,10.20
2018-03-23T23:08:04.367Z,10.38
2018-03-23T23:10:35.492Z,10.32
2018-03-23T23:13:07.067Z,10.16
2018-03-23T23:15:39.154Z,10.21
2018-03-23T23:18:10.240Z,10.26
2018-03-23T23:20:42.059Z,10.20
2018-03-23T23:23:14.561Z,10.25
2018-03-23T23:25:46.416Z,10.10
2018-03-23T23:28:17.837Z,10.19
2018-03-23T23:30:49.689Z,10.18
2018-03-23T23:33:21.645Z,10.19
2018-03-23T23:35:52.795Z,10.22
2018-03-23T23:38:24.537Z,9.94
2018-03-23T23:40:56.316Z,10.02
2018-03-23T23:43:28.136Z,9.96
2018-03-23T23:46:00.963Z,10.03
2018-03-23T23:48:31.987Z,9.97
2018-03-23T23:51:03.688Z,10.00
2018-03-23T23:53:40.035Z,10.15
2018-03-23T23:56:12.137Z,10.12
2018-03-23T23:58:43.898Z,10.06
